sensor_id;sensor_type;location;lat;lon;timestamp;P1;durP1;ratioP1;P2;durP2;ratioP2
17844;SDS011;9047;53.486;10.218;2023-10-13T00:00:26;8.27;;;2.85;;
17844;SDS011;9047;53.486;10.218;2023-10-13T00:02:55;7.53;;;2.47;;
17844;SDS011;9047;53.486;10.218;2023-10-13T00:05:26;10.82;;;2.78;;
17844;SDS011;9047;53.486;10.218;2023-10-13T00:07:55;9.90;;;3.00;;
17844;SDS011;9047;53.486;10.218;2023-10-13T00:10:25;9.35;;;2.50;;
17844;SDS011;9047;53.486;10.218;2023-10-13T00:12:54;11.40;;;3.40;;
17844;SDS011;9047;53.486;10.218;2023-10-13T00:15:31;9.88;;;3.00;;
17844;SDS011;9047;53.486;10.218;2023-10-13T00:18:03;8.32;;;2.88;;
17844;SDS011;9047;53.486;10.218;2023-10-13T00:20:37;11.15;;;2.90;;
17844;SDS011;9047;53.486;10.218;2023-10-13T00:23:14;11.00;;;2.83;;
17844;SDS011;9047;53.486;10.218;2023-10-13T00:25:45;11.65;;;3.05;;
17844;SDS011;9047;53.486;10.218;2023-10-13T00:28:24;12.98;;;3.65;;
17844;SDS011;9047;53.486;10.218;2023-10-13T00:30:51;12.65;;;3.45;;
17844;SDS011;9047;53.486;10.218;2023-10-13T00:33:25;12.27;;;3.40;;
17844;SDS011;9047;53.486;10.218;2023-10-13T00:35:53;12.10;;;4.07;;
17844;SDS011;9047;53.486;10.218;2023-10-13T00:38:23;12.82;;;3.83;;
17844;SDS011;9047;53.486;10.218;2023-10-13T00:40:52;11.35;;;4.03;;
17844;SDS011;9047;53.486;10.218;2023-10-13T00:43:19;13.90;;;4.25;;
17844;SDS011;9047;53.486;10.218;2023-10-13T00:45:59;12.40;;;4.40;;
17844;SDS011;9047;53.486;10.218;2023-10-13T00:48:33;11.10;;;4.07;;
17844;SDS011;9047;53.486;10.218;2023-10-13T00:51:07;12.88;;;4.00;;
17844;SDS011;9047;53.486;10.218;2023-10-13T00:53:39;12.18;;;4.30;;
17844;SDS011;9047;53.486;10.218;2023-10-13T00:56:08;13.02;;;4.18;;
17844;SDS011;9047;53.486;10.218;2023-10-13T00:58:45;11.07;;;4.10;;
17844;SDS011;9047;53.486;10.218;2023-10-13T01:01:16;9.95;;;4.57;;
17844;SDS011;9047;53.486;10.218;2023-10-13T01:03:47;10.73;;;4.07;;
17844;SDS011;9047;53.486;10.218;2023-10-13T01:06:16;14.75;;;4.22;;
17844;SDS011;9047;53.486;10.218;2023-10-13T01:08:45;12.35;;;4.07;;
17844;SDS011;9047;53.486;10.218;2023-10-13T01:11:16;14.80;;;4.32;;
17844;SDS011;9047;53.486;10.218;2023-10-13T01:13:43;9.68;;;3.95;;
17844;SDS011;9047;53.486;10.218;2023-10-13T01:16:12;14.75;;;4.70;;
17844;SDS011;9047;53.486;10.218;2023-10-13T01:18:41;14.93;;;4.47;;
17844;SDS011;9047;53.486;10.218;2023-10-13T01:21:14;12.52;;;4.50;;
17844;SDS011;9047;53.486;10.218;2023-10-13T01:23:43;16.58;;;4.63;;
17844;SDS011;9047;53.486;10.218;2023-10-13T01:26:12;13.02;;;4.68;;
17844;SDS011;9047;53.486;10.218;2023-10-13T01:28:47;15.45;;;5.53;;
17844;SDS011;9047;53.486;10.218;2023-10-13T01:31:14;13.48;;;4.70;;
17844;SDS011;9047;53.486;10.218;2023-10-13T01:33:51;14.90;;;5.10;;
17844;SDS011;9047;53.486;10.218;2023-10-13T01:36:20;17.40;;;5.75;;
17844;SDS011;9047;53.486;10.218;2023-10-13T01:38:48;15.95;;;5.32;;
17844;SDS011;9047;53.486;10.218;2023-10-13T01:41:18;16.08;;;5.90;;
17844;SDS011;9047;53.486;10.218;2023-10-13T01:43:47;12.82;;;5.35;;
17844;SDS011;9047;53.486;10.218;2023-10-13T01:46:13;17.67;;;5.93;;
17844;SDS011;9047;53.486;10.218;2023-10-13T01:48:46;17.92;;;6.25;;
17844;SDS011;9047;53.486;10.218;2023-10-13T01:51:14;14.98;;;6.40;;
17844;SDS011;9047;53.486;10.218;2023-10-13T01:53:42;15.18;;;6.00;;
17844;SDS011;9047;53.486;10.218;2023-10-13T01:56:10;16.75;;;6.30;;
17844;SDS011;9047;53.486;10.218;2023-10-13T01:58:39;17.98;;;6.30;;
17844;SDS011;9047;53.486;10.218;2023-10-13T02:01:07;15.95;;;6.15;;
17844;SDS011;9047;53.486;10.218;2023-10-13T02:03:35;17.33;;;6.40;;
17844;SDS011;9047;53.486;10.218;2023-10-13T02:06:07;19.58;;;7.18;;
17844;SDS011;9047;53.486;10.218;2023-10-13T02:08:36;17.27;;;7.05;;
17844;SDS011;9047;53.486;10.218;2023-10-13T02:11:07;15.48;;;6.53;;
17844;SDS011;9047;53.486;10.218;2023-10-13T02:13:36;20.17;;;6.80;;
17844;SDS011;9047;53.486;10.218;2023-10-13T02:16:13;21.70;;;7.70;;
17844;SDS011;9047;53.486;10.218;2023-10-13T02:18:46;19.25;;;7.07;;
17844;SDS011;9047;53.486;10.218;2023-10-13T02:21:16;19.77;;;8.02;;
17844;SDS011;9047;53.486;10.218;2023-10-13T02:23:42;18.52;;;7.85;;
17844;SDS011;9047;53.486;10.218;2023-10-13T02:26:10;16.70;;;7.43;;
17844;SDS011;9047;53.486;10.218;2023-10-13T02:28:42;18.90;;;8.25;;
17844;SDS011;9047;53.486;10.218;2023-10-13T02:31:17;18.50;;;8.73;;
17844;SDS011;9047;53.486;10.218;2023-10-13T02:33:44;18.83;;;8.20;;
17844;SDS011;9047;53.486;10.218;2023-10-13T02:36:12;17.77;;;8.57;;
17844;SDS011;9047;53.486;10.218;2023-10-13T02:38:38;15.68;;;8.27;;
17844;SDS011;9047;53.486;10.218;2023-10-13T02:41:11;19.15;;;8.27;;
17844;SDS011;9047;53.486;10.218;2023-10-13T02:43:46;17.83;;;8.27;;
17844;SDS011;9047;53.486;10.218;2023-10-13T02:46:13;22.67;;;9.95;;
17844;SDS011;9047;53.486;10.218;2023-10-13T02:48:41;24.75;;;10.13;;
17844;SDS011;9047;53.486;10.218;2023-10-13T02:51:11;23.70;;;10.60;;
17844;SDS011;9047;53.486;10.218;2023-10-13T02:53:41;20.27;;;10.50;;
17844;SDS011;9047;53.486;10.218;2023-10-13T02:56:12;23.05;;;10.63;;
17844;SDS011;9047;53.486;10.218;2023-10-13T02:58:38;24.40;;;10.70;;
17844;SDS011;9047;53.486;10.218;2023-10-13T03:01:12;26.42;;;11.05;;
17844;SDS011;9047;53.486;10.218;2023-10-13T03:03:53;24.35;;;10.88;;
17844;SDS011;9047;53.486;10.218;2023-10-13T03:06:24;25.33;;;11.13;;
17844;SDS011;9047;53.486;10.218;2023-10-13T03:08:57;27.75;;;11.65;;
17844;SDS011;9047;53.486;10.218;2023-10-13T03:11:40;23.58;;;11.95;;
17844;SDS011;9047;53.486;10.218;2023-10-13T03:14:08;25.27;;;12.07;;
17844;SDS011;9047;53.486;10.218;2023-10-13T03:16:52;28.45;;;12.10;;
17844;SDS011;9047;53.486;10.218;2023-10-13T03:19:20;29.40;;;11.70;;
17844;SDS011;9047;53.486;10.218;2023-10-13T03:21:46;28.67;;;12.05;;
17844;SDS011;9047;53.486;10.218;2023-10-13T03:24:21;26.33;;;12.75;;
17844;SDS011;9047;53.486;10.218;2023-10-13T03:26:58;27.13;;;12.55;;
17844;SDS011;9047;53.486;10.218;2023-10-13T03:29:33;26.70;;;12.25;;
17844;SDS011;9047;53.486;10.218;2023-10-13T03:32:01;24.65;;;12.00;;
17844;SDS011;9047;53.486;10.218;2023-10-13T03:34:36;25.13;;;12.00;;
17844;SDS011;9047;53.486;10.218;2023-10-13T03:37:14;24.98;;;12.60;;
17844;SDS011;9047;53.486;10.218;2023-10-13T03:39:43;24.98;;;12.68;;
17844;SDS011;9047;53.486;10.218;2023-10-13T03:42:10;24.90;;;12.85;;
17844;SDS011;9047;53.486;10.218;2023-10-13T03:44:44;27.65;;;12.85;;
17844;SDS011;9047;53.486;10.218;2023-10-13T03:47:13;27.60;;;12.88;;
17844;SDS011;9047;53.486;10.218;2023-10-13T03:49:51;27.58;;;13.18;;
17844;SDS011;9047;53.486;10.218;2023-10-13T03:52:39;28.90;;;13.48;;
17844;SDS011;9047;53.486;10.218;2023-10-13T03:55:06;25.63;;;13.13;;
17844;SDS011;9047;53.486;10.218;2023-10-13T03:57:41;28.92;;;13.43;;
17844;SDS011;9047;53.486;10.218;2023-10-13T04:00:11;29.00;;;13.77;;
17844;SDS011;9047;53.486;10.218;2023-10-13T04:02:48;28.75;;;13.48;;
17844;SDS011;9047;53.486;10.218;2023-10-13T04:05:28;29.90;;;13.23;;
17844;SDS011;9047;53.486;10.218;2023-10-13T04:08:04;26.13;;;13.80;;
17844;SDS011;9047;53.486;10.218;2023-10-13T04:10:48;32.65;;;15.25;;
17844;SDS011;9047;53.486;10.218;2023-10-13T04:13:32;29.17;;;14.20;;
17844;SDS011;9047;53.486;10.218;2023-10-13T04:16:17;35.80;;;14.85;;
17844;SDS011;9047;53.486;10.218;2023-10-13T04:18:59;38.38;;;15.32;;
17844;SDS011;9047;53.486;10.218;2023-10-13T04:21:34;29.20;;;14.20;;
17844;SDS011;9047;53.486;10.218;2023-10-13T04:24:20;30.13;;;14.32;;
17844;SDS011;9047;53.486;10.218;2023-10-13T04:27:04;29.48;;;15.07;;
17844;SDS011;9047;53.486;10.218;2023-10-13T04:29:49;33.78;;;14.93;;
17844;SDS011;9047;53.486;10.218;2023-10-13T04:32:35;35.80;;;16.02;;
17844;SDS011;9047;53.486;10.218;2023-10-13T04:35:06;39.70;;;17.27;;
17844;SDS011;9047;53.486;10.218;2023-10-13T04:37:43;41.33;;;15.90;;
17844;SDS011;9047;53.486;10.218;2023-10-13T04:40:26;37.03;;;15.52;;
17844;SDS011;9047;53.486;10.218;2023-10-13T04:43:01;43.58;;;17.30;;
17844;SDS011;9047;53.486;10.218;2023-10-13T04:45:30;35.33;;;15.50;;
17844;SDS011;9047;53.486;10.218;2023-10-13T04:48:18;40.08;;;17.55;;
17844;SDS011;9047;53.486;10.218;2023-10-13T04:51:05;41.33;;;17.48;;
17844;SDS011;9047;53.486;10.218;2023-10-13T04:54:15;52.42;;;18.13;;
17844;SDS011;9047;53.486;10.218;2023-10-13T04:56:51;53.15;;;18.73;;
17844;SDS011;9047;53.486;10.218;2023-10-13T04:59:36;41.25;;;17.25;;
17844;SDS011;9047;53.486;10.218;2023-10-13T05:02:23;53.30;;;18.85;;
17844;SDS011;9047;53.486;10.218;2023-10-13T05:05:14;53.17;;;19.00;;
17844;SDS011;9047;53.486;10.218;2023-10-13T05:08:00;53.90;;;20.08;;
17844;SDS011;9047;53.486;10.218;2023-10-13T05:10:48;58.80;;;21.55;;
17844;SDS011;9047;53.486;10.218;2023-10-13T05:13:32;73.63;;;22.45;;
17844;SDS011;9047;53.486;10.218;2023-10-13T05:16:16;54.28;;;20.80;;
17844;SDS011;9047;53.486;10.218;2023-10-13T05:19:00;54.00;;;21.17;;
17844;SDS011;9047;53.486;10.218;2023-10-13T05:21:44;64.93;;;22.13;;
17844;SDS011;9047;53.486;10.218;2023-10-13T05:24:33;58.97;;;21.95;;
17844;SDS011;9047;53.486;10.218;2023-10-13T05:27:19;78.07;;;25.52;;
17844;SDS011;9047;53.486;10.218;2023-10-13T05:30:05;75.10;;;24.98;;
17844;SDS011;9047;53.486;10.218;2023-10-13T05:32:50;79.72;;;25.33;;
17844;SDS011;9047;53.486;10.218;2023-10-13T05:35:39;87.10;;;27.60;;
17844;SDS011;9047;53.486;10.218;2023-10-13T05:38:25;80.07;;;26.48;;
17844;SDS011;9047;53.486;10.218;2023-10-13T05:41:13;71.13;;;26.65;;
17844;SDS011;9047;53.486;10.218;2023-10-13T05:43:57;89.68;;;27.65;;
17844;SDS011;9047;53.486;10.218;2023-10-13T05:46:43;77.43;;;25.58;;
17844;SDS011;9047;53.486;10.218;2023-10-13T05:49:28;62.15;;;24.92;;
17844;SDS011;9047;53.486;10.218;2023-10-13T05:52:11;78.82;;;28.05;;
17844;SDS011;9047;53.486;10.218;2023-10-13T05:55:02;91.25;;;29.70;;
17844;SDS011;9047;53.486;10.218;2023-10-13T05:57:56;89.72;;;33.35;;
17844;SDS011;9047;53.486;10.218;2023-10-13T06:00:47;100.70;;;33.85;;
17844;SDS011;9047;53.486;10.218;2023-10-13T06:03:33;110.85;;;34.30;;
17844;SDS011;9047;53.486;10.218;2023-10-13T06:06:18;98.53;;;34.17;;
17844;SDS011;9047;53.486;10.218;2023-10-13T06:09:03;128.07;;;38.72;;
17844;SDS011;9047;53.486;10.218;2023-10-13T06:11:44;83.70;;;33.67;;
17844;SDS011;9047;53.486;10.218;2023-10-13T06:14:30;86.00;;;35.92;;
17844;SDS011;9047;53.486;10.218;2023-10-13T06:17:14;84.70;;;33.35;;
17844;SDS011;9047;53.486;10.218;2023-10-13T06:20:00;116.28;;;37.17;;
17844;SDS011;9047;53.486;10.218;2023-10-13T06:22:46;131.10;;;40.10;;
17844;SDS011;9047;53.486;10.218;2023-10-13T06:25:31;148.18;;;43.10;;
17844;SDS011;9047;53.486;10.218;2023-10-13T06:28:15;117.15;;;38.83;;
17844;SDS011;9047;53.486;10.218;2023-10-13T06:31:03;86.50;;;37.35;;
17844;SDS011;9047;53.486;10.218;2023-10-13T06:33:33;116.13;;;41.08;;
17844;SDS011;9047;53.486;10.218;2023-10-13T06:36:01;110.65;;;40.00;;
17844;SDS011;9047;53.486;10.218;2023-10-13T06:38:34;127.70;;;42.10;;
17844;SDS011;9047;53.486;10.218;2023-10-13T06:41:02;93.15;;;38.33;;
17844;SDS011;9047;53.486;10.218;2023-10-13T06:43:31;105.40;;;38.88;;
17844;SDS011;9047;53.486;10.218;2023-10-13T06:46:06;106.25;;;39.55;;
17844;SDS011;9047;53.486;10.218;2023-10-13T06:48:39;108.13;;;39.55;;
17844;SDS011;9047;53.486;10.218;2023-10-13T06:51:08;150.10;;;41.95;;
17844;SDS011;9047;53.486;10.218;2023-10-13T06:53:43;81.50;;;36.85;;
17844;SDS011;9047;53.486;10.218;2023-10-13T06:56:12;88.55;;;37.42;;
17844;SDS011;9047;53.486;10.218;2023-10-13T06:58:43;86.03;;;37.47;;
17844;SDS011;9047;53.486;10.218;2023-10-13T07:01:15;90.85;;;37.75;;
17844;SDS011;9047;53.486;10.218;2023-10-13T07:03:47;86.13;;;38.50;;
17844;SDS011;9047;53.486;10.218;2023-10-13T07:06:18;93.13;;;37.90;;
17844;SDS011;9047;53.486;10.218;2023-10-13T07:08:47;91.43;;;38.30;;
17844;SDS011;9047;53.486;10.218;2023-10-13T07:11:18;73.20;;;35.90;;
17844;SDS011;9047;53.486;10.218;2023-10-13T07:13:58;93.07;;;38.25;;
17844;SDS011;9047;53.486;10.218;2023-10-13T07:16:43;88.47;;;37.67;;
17844;SDS011;9047;53.486;10.218;2023-10-13T07:19:23;88.00;;;38.55;;
17844;SDS011;9047;53.486;10.218;2023-10-13T07:22:21;86.45;;;37.70;;
17844;SDS011;9047;53.486;10.218;2023-10-13T07:24:53;83.80;;;37.58;;
17844;SDS011;9047;53.486;10.218;2023-10-13T07:27:34;80.32;;;36.63;;
17844;SDS011;9047;53.486;10.218;2023-10-13T07:30:04;88.55;;;37.58;;
17844;SDS011;9047;53.486;10.218;2023-10-13T07:32:40;82.50;;;36.00;;
17844;SDS011;9047;53.486;10.218;2023-10-13T07:35:11;69.45;;;35.03;;
17844;SDS011;9047;53.486;10.218;2023-10-13T07:37:42;68.10;;;34.42;;
17844;SDS011;9047;53.486;10.218;2023-10-13T07:40:10;77.88;;;34.92;;
17844;SDS011;9047;53.486;10.218;2023-10-13T07:43:04;64.20;;;32.42;;
17844;SDS011;9047;53.486;10.218;2023-10-13T07:45:35;74.75;;;33.80;;
17844;SDS011;9047;53.486;10.218;2023-10-13T07:48:07;57.45;;;31.08;;
17844;SDS011;9047;53.486;10.218;2023-10-13T07:50:45;50.78;;;30.75;;
17844;SDS011;9047;53.486;10.218;2023-10-13T07:53:15;56.15;;;30.23;;
17844;SDS011;9047;53.486;10.218;2023-10-13T07:55:48;59.25;;;29.30;;
17844;SDS011;9047;53.486;10.218;2023-10-13T07:58:21;52.20;;;29.55;;
17844;SDS011;9047;53.486;10.218;2023-10-13T08:00:51;54.40;;;28.45;;
17844;SDS011;9047;53.486;10.218;2023-10-13T08:03:32;50.03;;;26.85;;
17844;SDS011;9047;53.486;10.218;2023-10-13T08:06:10;43.88;;;26.52;;
17844;SDS011;9047;53.486;10.218;2023-10-13T08:08:52;47.35;;;26.80;;
17844;SDS011;9047;53.486;10.218;2023-10-13T08:11:34;39.45;;;24.55;;
17844;SDS011;9047;53.486;10.218;2023-10-13T08:14:03;50.85;;;28.13;;
17844;SDS011;9047;53.486;10.218;2023-10-13T08:16:48;41.42;;;24.13;;
17844;SDS011;9047;53.486;10.218;2023-10-13T08:19:21;40.38;;;23.80;;
17844;SDS011;9047;53.486;10.218;2023-10-13T08:21:53;38.33;;;23.25;;
17844;SDS011;9047;53.486;10.218;2023-10-13T08:24:24;41.95;;;23.63;;
17844;SDS011;9047;53.486;10.218;2023-10-13T08:26:55;40.80;;;23.80;;
17844;SDS011;9047;53.486;10.218;2023-10-13T08:29:39;37.03;;;22.02;;
17844;SDS011;9047;53.486;10.218;2023-10-13T08:32:40;34.10;;;21.67;;
17844;SDS011;9047;53.486;10.218;2023-10-13T08:35:21;39.35;;;23.02;;
17844;SDS011;9047;53.486;10.218;2023-10-13T08:37:50;32.63;;;21.85;;
17844;SDS011;9047;53.486;10.218;2023-10-13T08:40:29;31.38;;;21.08;;
17844;SDS011;9047;53.486;10.218;2023-10-13T08:43:31;29.02;;;19.75;;
17844;SDS011;9047;53.486;10.218;2023-10-13T08:46:08;33.65;;;20.02;;
17844;SDS011;9047;53.486;10.218;2023-10-13T08:48:52;32.47;;;20.42;;
17844;SDS011;9047;53.486;10.218;2023-10-13T08:51:44;30.05;;;19.33;;
17844;SDS011;9047;53.486;10.218;2023-10-13T08:54:15;26.67;;;17.98;;
17844;SDS011;9047;53.486;10.218;2023-10-13T08:56:45;24.98;;;17.45;;
17844;SDS011;9047;53.486;10.218;2023-10-13T08:59:21;22.83;;;15.80;;
17844;SDS011;9047;53.486;10.218;2023-10-13T09:01:58;22.90;;;16.02;;
17844;SDS011;9047;53.486;10.218;2023-10-13T09:04:40;19.80;;;13.95;;
17844;SDS011;9047;53.486;10.218;2023-10-13T09:07:14;16.48;;;12.65;;
17844;SDS011;9047;53.486;10.218;2023-10-13T09:09:47;15.00;;;11.55;;
17844;SDS011;9047;53.486;10.218;2023-10-13T09:12:36;20.20;;;12.63;;
17844;SDS011;9047;53.486;10.218;2023-10-13T09:15:28;16.48;;;11.40;;
17844;SDS011;9047;53.486;10.218;2023-10-13T09:18:10;14.00;;;10.85;;
17844;SDS011;9047;53.486;10.218;2023-10-13T09:21:03;15.52;;;10.73;;
17844;SDS011;9047;53.486;10.218;2023-10-13T09:23:53;13.93;;;10.23;;
17844;SDS011;9047;53.486;10.218;2023-10-13T09:26:38;13.40;;;10.10;;
17844;SDS011;9047;53.486;10.218;2023-10-13T09:29:13;13.52;;;9.30;;
17844;SDS011;9047;53.486;10.218;2023-10-13T09:31:43;14.82;;;9.60;;
17844;SDS011;9047;53.486;10.218;2023-10-13T09:34:20;12.73;;;9.00;;
17844;SDS011;9047;53.486;10.218;2023-10-13T09:36:48;13.18;;;8.50;;
17844;SDS011;9047;53.486;10.218;2023-10-13T09:39:25;12.27;;;7.63;;
17844;SDS011;9047;53.486;10.218;2023-10-13T09:42:09;11.20;;;7.57;;
17844;SDS011;9047;53.486;10.218;2023-10-13T09:44:37;9.88;;;7.15;;
17844;SDS011;9047;53.486;10.218;2023-10-13T09:47:10;8.50;;;6.47;;
17844;SDS011;9047;53.486;10.218;2023-10-13T09:49:43;9.13;;;7.35;;
17844;SDS011;9047;53.486;10.218;2023-10-13T09:52:17;9.32;;;6.22;;
17844;SDS011;9047;53.486;10.218;2023-10-13T09:54:50;10.50;;;6.40;;
17844;SDS011;9047;53.486;10.218;2023-10-13T09:57:26;10.68;;;7.03;;
17844;SDS011;9047;53.486;10.218;2023-10-13T10:00:09;9.80;;;6.85;;
17844;SDS011;9047;53.486;10.218;2023-10-13T20:41:48;14.27;;;6.35;;
17844;SDS011;9047;53.486;10.218;2023-10-13T20:44:17;18.55;;;6.40;;
17844;SDS011;9047;53.486;10.218;2023-10-13T20:46:44;15.07;;;5.82;;
17844;SDS011;9047;53.486;10.218;2023-10-13T20:49:11;13.30;;;5.68;;
17844;SDS011;9047;53.486;10.218;2023-10-13T20:51:40;11.63;;;5.65;;
17844;SDS011;9047;53.486;10.218;2023-10-13T20:54:09;12.40;;;5.10;;
17844;SDS011;9047;53.486;10.218;2023-10-13T20:56:38;14.88;;;5.30;;
17844;SDS011;9047;53.486;10.218;2023-10-13T20:59:06;11.55;;;4.78;;
17844;SDS011;9047;53.486;10.218;2023-10-13T21:01:33;16.58;;;5.20;;
17844;SDS011;9047;53.486;10.218;2023-10-13T21:04:02;12.52;;;4.93;;
17844;SDS011;9047;53.486;10.218;2023-10-13T21:06:31;13.02;;;5.00;;
17844;SDS011;9047;53.486;10.218;2023-10-13T21:08:59;11.40;;;5.20;;
17844;SDS011;9047;53.486;10.218;2023-10-13T21:11:26;8.98;;;4.30;;
17844;SDS011;9047;53.486;10.218;2023-10-13T21:13:54;11.93;;;4.70;;
17844;SDS011;9047;53.486;10.218;2023-10-13T21:16:23;10.73;;;4.68;;
17844;SDS011;9047;53.486;10.218;2023-10-13T21:18:50;11.82;;;4.68;;
17844;SDS011;9047;53.486;10.218;2023-10-13T21:21:18;10.05;;;4.50;;
17844;SDS011;9047;53.486;10.218;2023-10-13T21:23:50;10.38;;;4.60;;
17844;SDS011;9047;53.486;10.218;2023-10-13T21:26:19;10.05;;;4.40;;
17844;SDS011;9047;53.486;10.218;2023-10-13T21:28:47;11.07;;;4.40;;
17844;SDS011;9047;53.486;10.218;2023-10-13T21:31:17;10.07;;;3.97;;
17844;SDS011;9047;53.486;10.218;2023-10-13T21:33:48;10.93;;;4.53;;
17844;SDS011;9047;53.486;10.218;2023-10-13T21:36:19;9.25;;;4.32;;
17844;SDS011;9047;53.486;10.218;2023-10-13T21:38:49;10.70;;;5.13;;
17844;SDS011;9047;53.486;10.218;2023-10-13T21:44:23;8.90;;;4.28;;
17844;SDS011;9047;53.486;10.218;2023-10-13T21:46:51;7.13;;;3.80;;
17844;SDS011;9047;53.486;10.218;2023-10-13T21:49:22;9.18;;;4.53;;
17844;SDS011;9047;53.486;10.218;2023-10-13T21:51:51;7.57;;;3.50;;
17844;SDS011;9047;53.486;10.218;2023-10-13T21:54:18;10.30;;;3.60;;
17844;SDS011;9047;53.486;10.218;2023-10-13T21:56:48;8.18;;;3.03;;
17844;SDS011;9047;53.486;10.218;2023-10-13T21:59:32;8.30;;;3.42;;
17844;SDS011;9047;53.486;10.218;2023-10-13T22:02:02;7.85;;;3.45;;
17844;SDS011;9047;53.486;10.218;2023-10-13T22:07:59;8.82;;;3.58;;
17844;SDS011;9047;53.486;10.218;2023-10-13T22:10:27;6.57;;;2.95;;
17844;SDS011;9047;53.486;10.218;2023-10-13T22:12:57;8.77;;;3.25;;
17844;SDS011;9047;53.486;10.218;2023-10-13T22:15:26;6.35;;;2.90;;
17844;SDS011;9047;53.486;10.218;2023-10-13T22:17:55;7.28;;;3.20;;
17844;SDS011;9047;53.486;10.218;2023-10-13T22:20:32;8.60;;;3.70;;
17844;SDS011;9047;53.486;10.218;2023-10-13T22:23:04;8.20;;;4.05;;
17844;SDS011;9047;53.486;10.218;2023-10-13T22:25:31;8.60;;;4.22;;
17844;SDS011;9047;53.486;10.218;2023-10-13T22:27:59;8.40;;;4.78;;
17844;SDS011;9047;53.486;10.218;2023-10-13T22:30:26;9.32;;;4.78;;
17844;SDS011;9047;53.486;10.218;2023-10-13T22:32:54;9.25;;;4.85;;
17844;SDS011;9047;53.486;10.218;2023-10-13T22:35:21;15.43;;;5.30;;
17844;SDS011;9047;53.486;10.218;2023-10-13T22:37:48;11.32;;;5.35;;
17844;SDS011;9047;53.486;10.218;2023-10-13T22:40:20;12.10;;;5.72;;
17844;SDS011;9047;53.486;10.218;2023-10-13T22:42:48;13.27;;;6.05;;
17844;SDS011;9047;53.486;10.218;2023-10-13T22:45:15;16.50;;;6.30;;
17844;SDS011;9047;53.486;10.218;2023-10-13T22:47:50;11.05;;;5.90;;
17844;SDS011;9047;53.486;10.218;2023-10-13T22:50:18;13.55;;;6.40;;
17844;SDS011;9047;53.486;10.218;2023-10-13T22:52:46;13.15;;;6.38;;
17844;SDS011;9047;53.486;10.218;2023-10-13T22:55:15;13.35;;;7.05;;
17844;SDS011;9047;53.486;10.218;2023-10-13T22:57:55;16.60;;;6.88;;
17844;SDS011;9047;53.486;10.218;2023-10-13T23:00:24;13.30;;;6.40;;
17844;SDS011;9047;53.486;10.218;2023-10-13T23:03:09;16.70;;;6.78;;
17844;SDS011;9047;53.486;10.218;2023-10-13T23:05:39;14.50;;;6.70;;
17844;SDS011;9047;53.486;10.218;2023-10-13T23:08:17;13.93;;;6.55;;
17844;SDS011;9047;53.486;10.218;2023-10-13T23:10:48;11.60;;;6.50;;
17844;SDS011;9047;53.486;10.218;2023-10-13T23:13:18;13.70;;;6.82;;
17844;SDS011;9047;53.486;10.218;2023-10-13T23:15:45;12.60;;;7.30;;
17844;SDS011;9047;53.486;10.218;2023-10-13T23:18:13;12.57;;;6.63;;
17844;SDS011;9047;53.486;10.218;2023-10-13T23:20:41;12.77;;;6.60;;
17844;SDS011;9047;53.486;10.218;2023-10-13T23:23:08;12.00;;;6.82;;
17844;SDS011;9047;53.486;10.218;2023-10-13T23:25:36;12.70;;;7.15;;
17844;SDS011;9047;53.486;10.218;2023-10-13T23:28:04;12.50;;;7.25;;
17844;SDS011;9047;53.486;10.218;2023-10-13T23:30:34;12.05;;;7.40;;
17844;SDS011;9047;53.486;10.218;2023-10-13T23:33:02;11.98;;;7.63;;
17844;SDS011;9047;53.486;10.218;2023-10-13T23:35:30;14.52;;;8.05;;
17844;SDS011;9047;53.486;10.218;2023-10-13T23:37:59;12.38;;;7.72;;
17844;SDS011;9047;53.486;10.218;2023-10-13T23:40:42;15.05;;;8.20;;
17844;SDS011;9047;53.486;10.218;2023-10-13T23:43:11;14.38;;;8.52;;
17844;SDS011;9047;53.486;10.218;2023-10-13T23:45:51;14.73;;;8.82;;
17844;SDS011;9047;53.486;10.218;2023-10-13T23:48:21;14.43;;;8.98;;
17844;SDS011;9047;53.486;10.218;2023-10-13T23:50:50;15.40;;;8.68;;
17844;SDS011;9047;53.486;10.218;2023-10-13T23:53:24;16.95;;;8.85;;
17844;SDS011;9047;53.486;10.218;2023-10-13T23:55:58;14.98;;;9.18;;
17844;SDS011;9047;53.486;10.218;2023-10-13T23:58:33;13.88;;;9.40;;
